sensor_id;sensor_type;location;lat;lon;timestamp;P1;durP1;ratioP1;P2;durP2;ratioP2
71800;SDS011;59647;55.838;37.292;2023-12-20T00:00:08;1.65;;;0.77;;
71800;SDS011;59647;55.838;37.292;2023-12-20T00:02:34;2.13;;;0.80;;
71800;SDS011;59647;55.838;37.292;2023-12-20T00:05:00;1.42;;;0.80;;
71800;SDS011;59647;55.838;37.292;2023-12-20T00:07:27;1.25;;;0.73;;
71800;SDS011;59647;55.838;37.292;2023-12-20T00:09:52;0.98;;;0.70;;
71800;SDS011;59647;55.838;37.292;2023-12-20T00:12:18;1.23;;;0.70;;
71800;SDS011;59647;55.838;37.292;2023-12-20T00:14:44;1.38;;;0.63;;
71800;SDS011;59647;55.838;37.292;2023-12-20T00:17:10;1.83;;;0.63;;
71800;SDS011;59647;55.838;37.292;2023-12-20T00:19:36;1.58;;;0.70;;
71800;SDS011;59647;55.838;37.292;2023-12-20T00:22:02;1.83;;;0.90;;
71800;SDS011;59647;55.838;37.292;2023-12-20T00:24:28;2.40;;;0.70;;
71800;SDS011;59647;55.838;37.292;2023-12-20T00:26:54;2.60;;;0.75;;
71800;SDS011;59647;55.838;37.292;2023-12-20T00:29:20;2.55;;;0.65;;
71800;SDS011;59647;55.838;37.292;2023-12-20T00:31:46;1.20;;;0.77;;
71800;SDS011;59647;55.838;37.292;2023-12-20T00:34:12;1.08;;;0.60;;
71800;SDS011;59647;55.838;37.292;2023-12-20T00:36:38;0.93;;;0.70;;
71800;SDS011;59647;55.838;37.292;2023-12-20T00:39:04;1.00;;;0.70;;
71800;SDS011;59647;55.838;37.292;2023-12-20T00:41:30;1.52;;;0.80;;
71800;SDS011;59647;55.838;37.292;2023-12-20T00:43:55;1.30;;;0.63;;
71800;SDS011;59647;55.838;37.292;2023-12-20T00:46:21;0.75;;;0.60;;
71800;SDS011;59647;55.838;37.292;2023-12-20T00:48:47;2.63;;;0.95;;
71800;SDS011;59647;55.838;37.292;2023-12-20T00:51:13;1.92;;;0.80;;
71800;SDS011;59647;55.838;37.292;2023-12-20T00:53:39;2.13;;;1.05;;
71800;SDS011;59647;55.838;37.292;2023-12-20T00:56:05;2.80;;;1.10;;
71800;SDS011;59647;55.838;37.292;2023-12-20T00:58:31;1.50;;;0.90;;
71800;SDS011;59647;55.838;37.292;2023-12-20T01:00:57;1.55;;;0.90;;
71800;SDS011;59647;55.838;37.292;2023-12-20T01:03:23;4.38;;;1.08;;
71800;SDS011;59647;55.838;37.292;2023-12-20T01:05:49;2.28;;;1.40;;
71800;SDS011;59647;55.838;37.292;2023-12-20T01:08:15;2.03;;;1.00;;
71800;SDS011;59647;55.838;37.292;2023-12-20T01:10:41;2.80;;;1.10;;
71800;SDS011;59647;55.838;37.292;2023-12-20T01:13:07;2.35;;;1.23;;
71800;SDS011;59647;55.838;37.292;2023-12-20T01:15:34;1.50;;;0.95;;
71800;SDS011;59647;55.838;37.292;2023-12-20T01:18:00;3.45;;;1.02;;
71800;SDS011;59647;55.838;37.292;2023-12-20T01:20:26;4.10;;;1.20;;
71800;SDS011;59647;55.838;37.292;2023-12-20T01:22:52;2.65;;;1.20;;
71800;SDS011;59647;55.838;37.292;2023-12-20T01:25:18;1.95;;;1.35;;
71800;SDS011;59647;55.838;37.292;2023-12-20T01:27:44;3.38;;;1.25;;
71800;SDS011;59647;55.838;37.292;2023-12-20T01:30:10;3.40;;;1.38;;
71800;SDS011;59647;55.838;37.292;2023-12-20T01:32:36;1.55;;;1.10;;
71800;SDS011;59647;55.838;37.292;2023-12-20T01:35:02;3.30;;;1.45;;
71800;SDS011;59647;55.838;37.292;2023-12-20T01:37:29;2.83;;;1.50;;
71800;SDS011;59647;55.838;37.292;2023-12-20T01:39:55;3.25;;;1.55;;
71800;SDS011;59647;55.838;37.292;2023-12-20T01:42:21;4.30;;;1.77;;
71800;SDS011;59647;55.838;37.292;2023-12-20T01:44:47;2.80;;;1.67;;
71800;SDS011;59647;55.838;37.292;2023-12-20T01:47:13;2.92;;;1.50;;
71800;SDS011;59647;55.838;37.292;2023-12-20T01:49:40;4.05;;;1.30;;
71800;SDS011;59647;55.838;37.292;2023-12-20T01:52:06;2.30;;;1.33;;
71800;SDS011;59647;55.838;37.292;2023-12-20T01:54:34;3.50;;;1.48;;
71800;SDS011;59647;55.838;37.292;2023-12-20T01:57:01;3.97;;;1.35;;
71800;SDS011;59647;55.838;37.292;2023-12-20T01:59:27;2.95;;;1.48;;
71800;SDS011;59647;55.838;37.292;2023-12-20T02:01:55;1.95;;;1.13;;
71800;SDS011;59647;55.838;37.292;2023-12-20T02:04:21;3.20;;;1.30;;
71800;SDS011;59647;55.838;37.292;2023-12-20T02:06:47;2.22;;;0.90;;
71800;SDS011;59647;55.838;37.292;2023-12-20T02:09:17;3.45;;;1.40;;
71800;SDS011;59647;55.838;37.292;2023-12-20T02:11:44;2.50;;;1.42;;
71800;SDS011;59647;55.838;37.292;2023-12-20T02:14:10;1.50;;;0.80;;
71800;SDS011;59647;55.838;37.292;2023-12-20T02:16:36;3.70;;;1.20;;
71800;SDS011;59647;55.838;37.292;2023-12-20T02:19:03;1.98;;;1.00;;
71800;SDS011;59647;55.838;37.292;2023-12-20T02:21:32;5.90;;;1.30;;
71800;SDS011;59647;55.838;37.292;2023-12-20T02:24:00;1.52;;;0.85;;
71800;SDS011;59647;55.838;37.292;2023-12-20T02:26:26;1.80;;;0.88;;
71800;SDS011;59647;55.838;37.292;2023-12-20T02:28:52;4.40;;;1.15;;
71800;SDS011;59647;55.838;37.292;2023-12-20T02:31:20;1.35;;;0.60;;
71800;SDS011;59647;55.838;37.292;2023-12-20T02:33:47;2.17;;;1.25;;
71800;SDS011;59647;55.838;37.292;2023-12-20T02:36:13;1.40;;;0.85;;
71800;SDS011;59647;55.838;37.292;2023-12-20T02:38:39;2.08;;;0.90;;
71800;SDS011;59647;55.838;37.292;2023-12-20T02:41:05;2.47;;;1.33;;
71800;SDS011;59647;55.838;37.292;2023-12-20T02:43:31;2.05;;;0.70;;
71800;SDS011;59647;55.838;37.292;2023-12-20T02:45:57;1.95;;;0.68;;
71800;SDS011;59647;55.838;37.292;2023-12-20T02:48:23;1.80;;;0.70;;
71800;SDS011;59647;55.838;37.292;2023-12-20T02:50:48;2.78;;;1.02;;
71800;SDS011;59647;55.838;37.292;2023-12-20T02:53:15;1.05;;;0.70;;
71800;SDS011;59647;55.838;37.292;2023-12-20T02:55:40;2.40;;;1.10;;
71800;SDS011;59647;55.838;37.292;2023-12-20T02:58:06;1.65;;;0.95;;
71800;SDS011;59647;55.838;37.292;2023-12-20T03:00:32;4.03;;;1.10;;
71800;SDS011;59647;55.838;37.292;2023-12-20T03:02:58;1.98;;;0.93;;
71800;SDS011;59647;55.838;37.292;2023-12-20T03:05:25;2.28;;;1.40;;
71800;SDS011;59647;55.838;37.292;2023-12-20T03:07:51;4.82;;;1.20;;
71800;SDS011;59647;55.838;37.292;2023-12-20T03:10:18;7.07;;;1.73;;
71800;SDS011;59647;55.838;37.292;2023-12-20T03:12:44;2.28;;;1.27;;
71800;SDS011;59647;55.838;37.292;2023-12-20T03:15:10;2.20;;;1.20;;
71800;SDS011;59647;55.838;37.292;2023-12-20T03:17:36;2.83;;;1.02;;
71800;SDS011;59647;55.838;37.292;2023-12-20T03:20:02;2.35;;;1.23;;
71800;SDS011;59647;55.838;37.292;2023-12-20T03:22:30;2.95;;;1.00;;
71800;SDS011;59647;55.838;37.292;2023-12-20T03:24:55;3.63;;;1.00;;
71800;SDS011;59647;55.838;37.292;2023-12-20T03:27:21;10.75;;;1.30;;
71800;SDS011;59647;55.838;37.292;2023-12-20T03:29:47;1.02;;;0.70;;
71800;SDS011;59647;55.838;37.292;2023-12-20T03:32:13;2.08;;;1.10;;
71800;SDS011;59647;55.838;37.292;2023-12-20T03:34:39;1.40;;;0.88;;
71800;SDS011;59647;55.838;37.292;2023-12-20T03:37:05;2.13;;;0.98;;
71800;SDS011;59647;55.838;37.292;2023-12-20T03:39:31;3.17;;;1.30;;
71800;SDS011;59647;55.838;37.292;2023-12-20T03:41:57;5.07;;;1.20;;
71800;SDS011;59647;55.838;37.292;2023-12-20T03:44:23;5.35;;;1.10;;
71800;SDS011;59647;55.838;37.292;2023-12-20T03:46:49;2.00;;;1.10;;
71800;SDS011;59647;55.838;37.292;2023-12-20T03:49:15;2.35;;;1.20;;
71800;SDS011;59647;55.838;37.292;2023-12-20T03:51:40;3.30;;;1.40;;
71800;SDS011;59647;55.838;37.292;2023-12-20T03:54:08;3.55;;;1.40;;
71800;SDS011;59647;55.838;37.292;2023-12-20T03:56:34;4.60;;;1.30;;
71800;SDS011;59647;55.838;37.292;2023-12-20T03:59:00;5.05;;;1.65;;
71800;SDS011;59647;55.838;37.292;2023-12-20T04:01:25;3.60;;;2.00;;
71800;SDS011;59647;55.838;37.292;2023-12-20T04:03:51;3.85;;;1.65;;
71800;SDS011;59647;55.838;37.292;2023-12-20T04:06:17;4.40;;;1.70;;
71800;SDS011;59647;55.838;37.292;2023-12-20T04:08:43;4.38;;;1.52;;
71800;SDS011;59647;55.838;37.292;2023-12-20T04:11:09;5.15;;;1.83;;
71800;SDS011;59647;55.838;37.292;2023-12-20T04:13:35;5.22;;;1.55;;
71800;SDS011;59647;55.838;37.292;2023-12-20T04:16:01;4.50;;;2.00;;
71800;SDS011;59647;55.838;37.292;2023-12-20T04:18:27;4.38;;;1.90;;
71800;SDS011;59647;55.838;37.292;2023-12-20T04:20:54;2.85;;;1.88;;
71800;SDS011;59647;55.838;37.292;2023-12-20T04:23:19;2.95;;;1.55;;
71800;SDS011;59647;55.838;37.292;2023-12-20T04:25:45;9.50;;;1.50;;
71800;SDS011;59647;55.838;37.292;2023-12-20T04:28:12;4.10;;;1.40;;
71800;SDS011;59647;55.838;37.292;2023-12-20T04:30:38;2.30;;;1.15;;
71800;SDS011;59647;55.838;37.292;2023-12-20T04:33:04;2.35;;;1.20;;
71800;SDS011;59647;55.838;37.292;2023-12-20T04:35:30;4.35;;;1.42;;
71800;SDS011;59647;55.838;37.292;2023-12-20T04:37:56;7.57;;;1.25;;
71800;SDS011;59647;55.838;37.292;2023-12-20T04:40:22;4.43;;;1.23;;
71800;SDS011;59647;55.838;37.292;2023-12-20T04:42:48;2.22;;;1.10;;
71800;SDS011;59647;55.838;37.292;2023-12-20T04:45:14;4.82;;;1.00;;
71800;SDS011;59647;55.838;37.292;2023-12-20T04:47:41;1.73;;;1.10;;
71800;SDS011;59647;55.838;37.292;2023-12-20T04:50:08;4.63;;;1.33;;
71800;SDS011;59647;55.838;37.292;2023-12-20T04:52:35;4.10;;;1.42;;
71800;SDS011;59647;55.838;37.292;2023-12-20T04:55:01;11.48;;;1.40;;
71800;SDS011;59647;55.838;37.292;2023-12-20T04:57:28;1.55;;;0.88;;
71800;SDS011;59647;55.838;37.292;2023-12-20T04:59:54;2.75;;;1.08;;
71800;SDS011;59647;55.838;37.292;2023-12-20T05:02:20;2.42;;;1.10;;
71800;SDS011;59647;55.838;37.292;2023-12-20T05:04:46;4.07;;;1.40;;
71800;SDS011;59647;55.838;37.292;2023-12-20T05:07:12;12.80;;;1.52;;
71800;SDS011;59647;55.838;37.292;2023-12-20T05:09:38;3.58;;;1.55;;
71800;SDS011;59647;55.838;37.292;2023-12-20T05:12:04;2.33;;;1.35;;
71800;SDS011;59647;55.838;37.292;2023-12-20T05:14:31;2.90;;;1.42;;
71800;SDS011;59647;55.838;37.292;2023-12-20T05:16:56;6.20;;;1.67;;
71800;SDS011;59647;55.838;37.292;2023-12-20T05:19:22;2.83;;;1.20;;
71800;SDS011;59647;55.838;37.292;2023-12-20T05:21:48;6.25;;;1.85;;
71800;SDS011;59647;55.838;37.292;2023-12-20T05:24:14;5.53;;;2.30;;
71800;SDS011;59647;55.838;37.292;2023-12-20T05:26:41;5.78;;;1.88;;
71800;SDS011;59647;55.838;37.292;2023-12-20T05:29:06;3.72;;;1.77;;
71800;SDS011;59647;55.838;37.292;2023-12-20T05:31:32;6.28;;;1.60;;
71800;SDS011;59647;55.838;37.292;2023-12-20T05:33:58;3.30;;;1.45;;
71800;SDS011;59647;55.838;37.292;2023-12-20T05:36:24;5.82;;;2.25;;
71800;SDS011;59647;55.838;37.292;2023-12-20T05:38:51;4.28;;;1.90;;
71800;SDS011;59647;55.838;37.292;2023-12-20T05:41:16;6.97;;;2.13;;
71800;SDS011;59647;55.838;37.292;2023-12-20T05:43:42;2.90;;;1.70;;
71800;SDS011;59647;55.838;37.292;2023-12-20T05:46:10;3.97;;;1.75;;
71800;SDS011;59647;55.838;37.292;2023-12-20T05:48:37;3.60;;;1.73;;
71800;SDS011;59647;55.838;37.292;2023-12-20T05:51:03;3.35;;;1.48;;
71800;SDS011;59647;55.838;37.292;2023-12-20T05:53:29;4.22;;;1.70;;
71800;SDS011;59647;55.838;37.292;2023-12-20T05:55:55;5.28;;;1.92;;
71800;SDS011;59647;55.838;37.292;2023-12-20T05:58:21;4.88;;;1.75;;
71800;SDS011;59647;55.838;37.292;2023-12-20T06:00:47;5.32;;;2.63;;
71800;SDS011;59647;55.838;37.292;2023-12-20T06:03:14;7.32;;;2.00;;
71800;SDS011;59647;55.838;37.292;2023-12-20T06:05:40;3.00;;;1.88;;
71800;SDS011;59647;55.838;37.292;2023-12-20T06:08:06;5.53;;;3.10;;
71800;SDS011;59647;55.838;37.292;2023-12-20T06:10:32;9.88;;;3.35;;
71800;SDS011;59647;55.838;37.292;2023-12-20T06:12:58;8.98;;;4.65;;
71800;SDS011;59647;55.838;37.292;2023-12-20T06:15:26;9.98;;;3.20;;
71800;SDS011;59647;55.838;37.292;2023-12-20T06:17:52;5.53;;;2.38;;
71800;SDS011;59647;55.838;37.292;2023-12-20T06:20:18;7.20;;;2.53;;
71800;SDS011;59647;55.838;37.292;2023-12-20T06:22:44;7.18;;;2.90;;
71800;SDS011;59647;55.838;37.292;2023-12-20T06:25:10;4.68;;;2.40;;
71800;SDS011;59647;55.838;37.292;2023-12-20T06:27:36;6.20;;;2.10;;
71800;SDS011;59647;55.838;37.292;2023-12-20T06:30:02;5.28;;;2.50;;
71800;SDS011;59647;55.838;37.292;2023-12-20T06:32:30;4.80;;;2.20;;
71800;SDS011;59647;55.838;37.292;2023-12-20T06:34:56;3.65;;;2.25;;
71800;SDS011;59647;55.838;37.292;2023-12-20T06:37:22;5.22;;;2.17;;
71800;SDS011;59647;55.838;37.292;2023-12-20T06:39:48;5.90;;;2.20;;
71800;SDS011;59647;55.838;37.292;2023-12-20T06:42:14;11.18;;;2.90;;
71800;SDS011;59647;55.838;37.292;2023-12-20T06:44:40;5.97;;;2.38;;
71800;SDS011;59647;55.838;37.292;2023-12-20T06:47:06;5.07;;;2.20;;
71800;SDS011;59647;55.838;37.292;2023-12-20T06:49:33;5.55;;;2.25;;
71800;SDS011;59647;55.838;37.292;2023-12-20T06:51:59;6.18;;;2.70;;
71800;SDS011;59647;55.838;37.292;2023-12-20T06:54:25;5.68;;;2.42;;
71800;SDS011;59647;55.838;37.292;2023-12-20T06:56:51;5.38;;;2.58;;
71800;SDS011;59647;55.838;37.292;2023-12-20T06:59:17;5.97;;;2.53;;
71800;SDS011;59647;55.838;37.292;2023-12-20T07:01:46;9.77;;;2.35;;
71800;SDS011;59647;55.838;37.292;2023-12-20T07:04:13;5.65;;;2.53;;
71800;SDS011;59647;55.838;37.292;2023-12-20T07:06:39;5.22;;;2.45;;
71800;SDS011;59647;55.838;37.292;2023-12-20T07:09:05;7.00;;;2.33;;
71800;SDS011;59647;55.838;37.292;2023-12-20T07:11:31;4.63;;;2.50;;
71800;SDS011;59647;55.838;37.292;2023-12-20T07:13:57;3.95;;;2.28;;
71800;SDS011;59647;55.838;37.292;2023-12-20T07:16:23;11.25;;;2.60;;
71800;SDS011;59647;55.838;37.292;2023-12-20T07:18:50;14.77;;;2.60;;
71800;SDS011;59647;55.838;37.292;2023-12-20T07:21:17;5.90;;;2.63;;
71800;SDS011;59647;55.838;37.292;2023-12-20T07:23:44;3.63;;;2.20;;
71800;SDS011;59647;55.838;37.292;2023-12-20T07:26:10;5.07;;;2.15;;
71800;SDS011;59647;55.838;37.292;2023-12-20T07:28:36;6.47;;;2.10;;
71800;SDS011;59647;55.838;37.292;2023-12-20T07:31:02;6.20;;;2.15;;
71800;SDS011;59647;55.838;37.292;2023-12-20T07:33:28;3.55;;;1.70;;
71800;SDS011;59647;55.838;37.292;2023-12-20T07:35:55;3.88;;;2.10;;
71800;SDS011;59647;55.838;37.292;2023-12-20T07:38:21;4.32;;;2.47;;
71800;SDS011;59647;55.838;37.292;2023-12-20T07:40:47;4.97;;;2.20;;
71800;SDS011;59647;55.838;37.292;2023-12-20T07:43:13;4.78;;;2.25;;
71800;SDS011;59647;55.838;37.292;2023-12-20T07:45:38;5.75;;;3.00;;
71800;SDS011;59647;55.838;37.292;2023-12-20T07:48:05;4.65;;;1.70;;
71800;SDS011;59647;55.838;37.292;2023-12-20T07:50:32;6.90;;;2.20;;
71800;SDS011;59647;55.838;37.292;2023-12-20T07:52:58;9.80;;;2.45;;
71800;SDS011;59647;55.838;37.292;2023-12-20T07:55:26;5.80;;;2.20;;
71800;SDS011;59647;55.838;37.292;2023-12-20T07:57:52;5.10;;;2.17;;
71800;SDS011;59647;55.838;37.292;2023-12-20T08:00:18;4.15;;;2.03;;
71800;SDS011;59647;55.838;37.292;2023-12-20T08:02:44;9.40;;;2.13;;
71800;SDS011;59647;55.838;37.292;2023-12-20T08:05:10;4.68;;;2.00;;
71800;SDS011;59647;55.838;37.292;2023-12-20T08:07:36;3.85;;;1.73;;
71800;SDS011;59647;55.838;37.292;2023-12-20T08:10:02;9.50;;;1.75;;
71800;SDS011;59647;55.838;37.292;2023-12-20T08:12:29;3.85;;;1.45;;
71800;SDS011;59647;55.838;37.292;2023-12-20T08:14:55;4.80;;;2.10;;
71800;SDS011;59647;55.838;37.292;2023-12-20T08:17:22;3.20;;;1.60;;
71800;SDS011;59647;55.838;37.292;2023-12-20T08:19:49;6.32;;;2.00;;
71800;SDS011;59647;55.838;37.292;2023-12-20T08:22:14;7.53;;;2.85;;
71800;SDS011;59647;55.838;37.292;2023-12-20T08:24:40;5.05;;;2.13;;
71800;SDS011;59647;55.838;37.292;2023-12-20T08:27:06;4.72;;;1.90;;
71800;SDS011;59647;55.838;37.292;2023-12-20T08:29:32;4.68;;;2.42;;
71800;SDS011;59647;55.838;37.292;2023-12-20T08:31:58;8.82;;;2.60;;
71800;SDS011;59647;55.838;37.292;2023-12-20T08:34:25;3.42;;;1.63;;
71800;SDS011;59647;55.838;37.292;2023-12-20T08:36:51;3.85;;;1.60;;
71800;SDS011;59647;55.838;37.292;2023-12-20T08:39:17;3.42;;;1.60;;
71800;SDS011;59647;55.838;37.292;2023-12-20T08:41:43;2.00;;;1.38;;
71800;SDS011;59647;55.838;37.292;2023-12-20T08:44:09;4.15;;;1.63;;
71800;SDS011;59647;55.838;37.292;2023-12-20T08:46:38;3.95;;;1.70;;
71800;SDS011;59647;55.838;37.292;2023-12-20T08:49:04;2.90;;;1.67;;
71800;SDS011;59647;55.838;37.292;2023-12-20T08:51:30;4.63;;;1.50;;
71800;SDS011;59647;55.838;37.292;2023-12-20T08:53:56;3.72;;;2.00;;
71800;SDS011;59647;55.838;37.292;2023-12-20T08:56:22;12.07;;;2.17;;
71800;SDS011;59647;55.838;37.292;2023-12-20T08:58:48;3.63;;;2.15;;
71800;SDS011;59647;55.838;37.292;2023-12-20T09:01:14;6.47;;;1.90;;
71800;SDS011;59647;55.838;37.292;2023-12-20T09:03:40;8.23;;;2.25;;
71800;SDS011;59647;55.838;37.292;2023-12-20T09:06:06;5.47;;;1.90;;
71800;SDS011;59647;55.838;37.292;2023-12-20T09:08:32;6.43;;;2.20;;
71800;SDS011;59647;55.838;37.292;2023-12-20T09:10:59;6.07;;;1.98;;
71800;SDS011;59647;55.838;37.292;2023-12-20T09:13:26;3.75;;;2.20;;
71800;SDS011;59647;55.838;37.292;2023-12-20T09:15:57;7.95;;;2.17;;
71800;SDS011;59647;55.838;37.292;2023-12-20T09:18:23;3.78;;;2.17;;
71800;SDS011;59647;55.838;37.292;2023-12-20T09:20:49;3.88;;;1.75;;
71800;SDS011;59647;55.838;37.292;2023-12-20T09:23:15;3.40;;;1.80;;
71800;SDS011;59647;55.838;37.292;2023-12-20T09:25:42;3.63;;;1.77;;
71800;SDS011;59647;55.838;37.292;2023-12-20T09:28:08;2.60;;;1.27;;
71800;SDS011;59647;55.838;37.292;2023-12-20T09:30:34;3.63;;;1.80;;
71800;SDS011;59647;55.838;37.292;2023-12-20T09:33:03;6.10;;;2.00;;
71800;SDS011;59647;55.838;37.292;2023-12-20T09:35:29;2.50;;;1.45;;
71800;SDS011;59647;55.838;37.292;2023-12-20T09:37:55;2.90;;;1.50;;
71800;SDS011;59647;55.838;37.292;2023-12-20T09:40:20;4.65;;;1.90;;
71800;SDS011;59647;55.838;37.292;2023-12-20T09:42:55;2.33;;;1.27;;
71800;SDS011;59647;55.838;37.292;2023-12-20T09:45:23;5.05;;;1.58;;
71800;SDS011;59647;55.838;37.292;2023-12-20T09:47:51;5.28;;;2.13;;
71800;SDS011;59647;55.838;37.292;2023-12-20T09:50:19;3.58;;;1.70;;
71800;SDS011;59647;55.838;37.292;2023-12-20T09:52:50;3.20;;;1.52;;
71800;SDS011;59647;55.838;37.292;2023-12-20T09:55:17;3.65;;;1.65;;
71800;SDS011;59647;55.838;37.292;2023-12-20T09:57:45;3.53;;;1.48;;
71800;SDS011;59647;55.838;37.292;2023-12-20T10:00:14;3.25;;;1.50;;
71800;SDS011;59647;55.838;37.292;2023-12-20T10:02:56;2.97;;;1.42;;
71800;SDS011;59647;55.838;37.292;2023-12-20T10:05:27;4.10;;;1.65;;
71800;SDS011;59647;55.838;37.292;2023-12-20T10:07:57;2.50;;;1.40;;
71800;SDS011;59647;55.838;37.292;2023-12-20T10:10:24;1.77;;;1.00;;
71800;SDS011;59647;55.838;37.292;2023-12-20T10:13:04;3.10;;;1.60;;
71800;SDS011;59647;55.838;37.292;2023-12-20T10:15:35;4.10;;;1.90;;
71800;SDS011;59647;55.838;37.292;2023-12-20T10:18:02;4.82;;;1.70;;
71800;SDS011;59647;55.838;37.292;2023-12-20T10:20:29;2.53;;;1.45;;
71800;SDS011;59647;55.838;37.292;2023-12-20T10:22:57;2.72;;;1.30;;
71800;SDS011;59647;55.838;37.292;2023-12-20T10:25:24;3.70;;;1.92;;
71800;SDS011;59647;55.838;37.292;2023-12-20T10:27:50;4.05;;;1.98;;
71800;SDS011;59647;55.838;37.292;2023-12-20T10:30:37;3.05;;;1.50;;
71800;SDS011;59647;55.838;37.292;2023-12-20T10:33:04;2.03;;;1.20;;
71800;SDS011;59647;55.838;37.292;2023-12-20T10:35:32;3.08;;;1.70;;
71800;SDS011;59647;55.838;37.292;2023-12-20T10:37:58;3.03;;;1.60;;
71800;SDS011;59647;55.838;37.292;2023-12-20T10:40:28;4.30;;;1.88;;
71800;SDS011;59647;55.838;37.292;2023-12-20T10:42:55;6.15;;;2.90;;
71800;SDS011;59647;55.838;37.292;2023-12-20T10:45:22;3.25;;;1.27;;
71800;SDS011;59647;55.838;37.292;2023-12-20T10:47:49;3.35;;;1.42;;
71800;SDS011;59647;55.838;37.292;2023-12-20T10:50:16;5.20;;;2.22;;
71800;SDS011;59647;55.838;37.292;2023-12-20T10:52:44;4.00;;;1.50;;
71800;SDS011;59647;55.838;37.292;2023-12-20T10:55:12;4.30;;;1.67;;
71800;SDS011;59647;55.838;37.292;2023-12-20T10:57:38;3.10;;;1.33;;
71800;SDS011;59647;55.838;37.292;2023-12-20T11:00:05;3.05;;;1.50;;
71800;SDS011;59647;55.838;37.292;2023-12-20T11:02:39;3.20;;;1.50;;
71800;SDS011;59647;55.838;37.292;2023-12-20T11:07:43;3.35;;;1.40;;
71800;SDS011;59647;55.838;37.292;2023-12-20T11:10:31;6.32;;;2.00;;
71800;SDS011;59647;55.838;37.292;2023-12-20T11:15:45;6.07;;;2.28;;
71800;SDS011;59647;55.838;37.292;2023-12-20T11:18:11;6.68;;;1.98;;
71800;SDS011;59647;55.838;37.292;2023-12-20T11:20:38;5.07;;;1.90;;
71800;SDS011;59647;55.838;37.292;2023-12-20T11:23:08;4.05;;;1.40;;
71800;SDS011;59647;55.838;37.292;2023-12-20T11:25:56;2.97;;;1.20;;
71800;SDS011;59647;55.838;37.292;2023-12-20T11:28:24;3.28;;;1.20;;
71800;SDS011;59647;55.838;37.292;2023-12-20T11:30:52;3.42;;;1.30;;
71800;SDS011;59647;55.838;37.292;2023-12-20T11:33:32;3.80;;;1.20;;
71800;SDS011;59647;55.838;37.292;2023-12-20T11:36:02;1.85;;;1.00;;
71800;SDS011;59647;55.838;37.292;2023-12-20T11:38:37;3.58;;;1.13;;
71800;SDS011;59647;55.838;37.292;2023-12-20T11:41:07;2.35;;;1.35;;
71800;SDS011;59647;55.838;37.292;2023-12-20T11:43:36;1.95;;;0.85;;
71800;SDS011;59647;55.838;37.292;2023-12-20T11:46:06;2.97;;;0.93;;
71800;SDS011;59647;55.838;37.292;2023-12-20T11:48:34;1.92;;;0.98;;
71800;SDS011;59647;55.838;37.292;2023-12-20T11:51:02;3.80;;;2.03;;
71800;SDS011;59647;55.838;37.292;2023-12-20T11:53:29;6.57;;;2.53;;
71800;SDS011;59647;55.838;37.292;2023-12-20T11:55:57;3.15;;;1.60;;
71800;SDS011;59647;55.838;37.292;2023-12-20T11:58:23;1.58;;;0.80;;
71800;SDS011;59647;55.838;37.292;2023-12-20T12:00:49;1.58;;;0.77;;
71800;SDS011;59647;55.838;37.292;2023-12-20T12:03:16;1.88;;;0.90;;
71800;SDS011;59647;55.838;37.292;2023-12-20T12:05:42;3.85;;;1.10;;
71800;SDS011;59647;55.838;37.292;2023-12-20T12:08:08;4.15;;;1.20;;
71800;SDS011;59647;55.838;37.292;2023-12-20T12:10:34;1.60;;;0.98;;
71800;SDS011;59647;55.838;37.292;2023-12-20T12:13:00;2.05;;;1.20;;
71800;SDS011;59647;55.838;37.292;2023-12-20T12:15:26;1.80;;;0.77;;
71800;SDS011;59647;55.838;37.292;2023-12-20T12:17:56;5.78;;;0.85;;
71800;SDS011;59647;55.838;37.292;2023-12-20T12:20:23;1.27;;;0.65;;
71800;SDS011;59647;55.838;37.292;2023-12-20T12:23:02;1.75;;;1.13;;
71800;SDS011;59647;55.838;37.292;2023-12-20T12:25:31;2.05;;;0.80;;
71800;SDS011;59647;55.838;37.292;2023-12-20T12:28:01;1.25;;;0.70;;
71800;SDS011;59647;55.838;37.292;2023-12-20T12:30:27;2.03;;;0.90;;
71800;SDS011;59647;55.838;37.292;2023-12-20T12:32:53;1.60;;;0.90;;
71800;SDS011;59647;55.838;37.292;2023-12-20T12:35:21;3.53;;;1.10;;
71800;SDS011;59647;55.838;37.292;2023-12-20T12:37:48;3.05;;;0.85;;
71800;SDS011;59647;55.838;37.292;2023-12-20T12:40:14;2.92;;;0.82;;
71800;SDS011;59647;55.838;37.292;2023-12-20T12:42:42;2.88;;;0.80;;
71800;SDS011;59647;55.838;37.292;2023-12-20T12:45:09;2.90;;;0.90;;
71800;SDS011;59647;55.838;37.292;2023-12-20T12:47:40;2.55;;;0.80;;
71800;SDS011;59647;55.838;37.292;2023-12-20T12:50:06;2.10;;;0.95;;
71800;SDS011;59647;55.838;37.292;2023-12-20T12:52:32;2.00;;;0.85;;
71800;SDS011;59647;55.838;37.292;2023-12-20T12:54:59;1.92;;;0.98;;
71800;SDS011;59647;55.838;37.292;2023-12-20T12:57:25;3.28;;;0.95;;
71800;SDS011;59647;55.838;37.292;2023-12-20T12:59:51;2.20;;;0.90;;
71800;SDS011;59647;55.838;37.292;2023-12-20T13:02:17;3.58;;;0.85;;
71800;SDS011;59647;55.838;37.292;2023-12-20T13:04:46;4.55;;;1.58;;
71800;SDS011;59647;55.838;37.292;2023-12-20T13:07:12;2.38;;;1.02;;
71800;SDS011;59647;55.838;37.292;2023-12-20T13:09:39;2.47;;;0.90;;
71800;SDS011;59647;55.838;37.292;2023-12-20T13:12:06;3.78;;;1.67;;
71800;SDS011;59647;55.838;37.292;2023-12-20T13:14:34;2.30;;;1.48;;
71800;SDS011;59647;55.838;37.292;2023-12-20T13:17:02;1.98;;;0.85;;
71800;SDS011;59647;55.838;37.292;2023-12-20T13:19:29;2.83;;;1.40;;
71800;SDS011;59647;55.838;37.292;2023-12-20T13:21:56;4.18;;;1.52;;
71800;SDS011;59647;55.838;37.292;2023-12-20T13:24:23;3.05;;;1.15;;
71800;SDS011;59647;55.838;37.292;2023-12-20T13:26:49;4.47;;;1.83;;
71800;SDS011;59647;55.838;37.292;2023-12-20T13:29:16;8.60;;;2.20;;
71800;SDS011;59647;55.838;37.292;2023-12-20T13:31:42;4.35;;;1.33;;
71800;SDS011;59647;55.838;37.292;2023-12-20T13:34:08;4.75;;;1.08;;
71800;SDS011;59647;55.838;37.292;2023-12-20T13:36:34;6.65;;;2.85;;
71800;SDS011;59647;55.838;37.292;2023-12-20T13:39:02;28.88;;;9.38;;
71800;SDS011;59647;55.838;37.292;2023-12-20T13:41:30;30.67;;;11.18;;
71800;SDS011;59647;55.838;37.292;2023-12-20T13:43:59;66.43;;;21.60;;
71800;SDS011;59647;55.838;37.292;2023-12-20T13:46:27;35.60;;;12.40;;
71800;SDS011;59647;55.838;37.292;2023-12-20T13:48:53;20.55;;;8.38;;
71800;SDS011;59647;55.838;37.292;2023-12-20T13:51:18;10.93;;;5.03;;
71800;SDS011;59647;55.838;37.292;2023-12-20T13:53:46;16.08;;;6.50;;
71800;SDS011;59647;55.838;37.292;2023-12-20T13:56:14;10.18;;;3.70;;
71800;SDS011;59647;55.838;37.292;2023-12-20T13:58:41;6.97;;;2.08;;
71800;SDS011;59647;55.838;37.292;2023-12-20T14:01:10;6.15;;;2.65;;
71800;SDS011;59647;55.838;37.292;2023-12-20T14:03:37;7.30;;;2.72;;
71800;SDS011;59647;55.838;37.292;2023-12-20T14:06:03;3.22;;;1.48;;
71800;SDS011;59647;55.838;37.292;2023-12-20T14:08:32;25.65;;;11.88;;
71800;SDS011;59647;55.838;37.292;2023-12-20T14:10:58;53.25;;;22.92;;
71800;SDS011;59647;55.838;37.292;2023-12-20T14:13:24;60.38;;;24.17;;
71800;SDS011;59647;55.838;37.292;2023-12-20T14:15:50;76.07;;;27.33;;
71800;SDS011;59647;55.838;37.292;2023-12-20T14:18:16;95.30;;;33.30;;
71800;SDS011;59647;55.838;37.292;2023-12-20T14:20:42;25.38;;;9.05;;
71800;SDS011;59647;55.838;37.292;2023-12-20T14:23:10;16.52;;;6.65;;
71800;SDS011;59647;55.838;37.292;2023-12-20T14:25:36;30.60;;;13.82;;
71800;SDS011;59647;55.838;37.292;2023-12-20T14:28:04;7.82;;;3.33;;
71800;SDS011;59647;55.838;37.292;2023-12-20T14:30:31;6.95;;;3.22;;
71800;SDS011;59647;55.838;37.292;2023-12-20T14:32:57;17.77;;;7.20;;
71800;SDS011;59647;55.838;37.292;2023-12-20T14:35:23;9.35;;;4.45;;